createdAt,value
2022-08-17T00:00:34.323Z,21.43
2022-08-17T00:05:41.668Z,21.42
2022-08-17T00:10:45.824Z,21.35
2022-08-17T00:15:47.710Z,21.37
2022-08-17T00:20:49.225Z,21.42
2022-08-17T00:25:52.263Z,21.38
2022-08-17T00:30:54.312Z,21.39
2022-08-17T00:35:57.188Z,21.35
2022-08-17T00:41:05.634Z,21.37
2022-08-17T00:46:16.294Z,21.38
2022-08-17T00:51:29.795Z,21.41
2022-08-17T00:56:37.843Z,21.35
2022-08-17T01:01:40.156Z,21.28
2022-08-17T01:06:42.817Z,21.24
2022-08-17T01:11:45.476Z,21.23
2022-08-17T01:16:49.359Z,21.17
2022-08-17T01:21:59.389Z,21.19
2022-08-17T01:27:02.901Z,21.16
2022-08-17T01:32:12.709Z,21.13
2022-08-17T01:37:14.542Z,21.06
2022-08-17T01:42:23.692Z,21.07
2022-08-17T01:47:25.892Z,21.03
2022-08-17T01:52:27.422Z,21.03
2022-08-17T01:57:28.939Z,21.01
2022-08-17T02:02:31.582Z,21.04
2022-08-17T02:07:47.936Z,21.07
2022-08-17T02:12:55.731Z,21.04
2022-08-17T02:17:57.297Z,21.04
2022-08-17T02:23:02.389Z,21.05
2022-08-17T02:28:04.575Z,21.04
2022-08-17T02:33:09.246Z,21.08
2022-08-17T02:38:11.044Z,21.13
2022-08-17T02:43:13.945Z,21.01
2022-08-17T02:48:15.515Z,20.94
2022-08-17T02:53:35.662Z,20.99
2022-08-17T02:58:37.866Z,21.04
2022-08-17T03:03:39.888Z,21.04
2022-08-17T03:08:41.367Z,21.05
2022-08-17T03:13:42.877Z,21.02
2022-08-17T03:18:44.381Z,21.00
2022-08-17T03:23:45.867Z,21.05
2022-08-17T03:28:47.359Z,21.16
2022-08-17T03:33:48.873Z,21.22
2022-08-17T03:38:50.428Z,21.28
2022-08-17T03:43:52.629Z,21.32
2022-08-17T03:49:13.527Z,21.24
2022-08-17T03:54:33.876Z,21.12
2022-08-17T03:59:36.138Z,20.81
2022-08-17T04:04:38.345Z,20.17
2022-08-17T04:09:40.039Z,19.78
2022-08-17T04:14:53.699Z,19.65
2022-08-17T04:19:56.727Z,19.29
2022-08-17T04:24:59.061Z,18.86
2022-08-17T04:30:01.002Z,18.73
2022-08-17T04:35:02.505Z,18.63
2022-08-17T04:40:23.102Z,18.57
2022-08-17T04:45:32.188Z,18.56
2022-08-17T04:50:36.969Z,18.57
2022-08-17T04:55:38.833Z,18.56
2022-08-17T05:00:40.425Z,18.48
2022-08-17T05:05:49.695Z,18.48
2022-08-17T05:10:52.095Z,18.42
2022-08-17T05:15:56.807Z,18.32
2022-08-17T05:20:58.854Z,18.24
2022-08-17T05:26:00.428Z,18.22
2022-08-17T05:31:03.730Z,18.26
2022-08-17T05:36:08.021Z,18.33
2022-08-17T05:41:09.957Z,18.45
2022-08-17T05:46:28.055Z,18.57
2022-08-17T05:51:51.199Z,18.64
2022-08-17T05:57:07.522Z,18.69
2022-08-17T06:02:36.208Z,18.75
2022-08-17T06:08:08.534Z,18.82
2022-08-17T06:13:31.375Z,18.80
2022-08-17T06:18:43.613Z,18.75
2022-08-17T06:23:50.677Z,18.76
2022-08-17T06:28:59.056Z,18.85
2022-08-17T06:34:03.117Z,18.89
2022-08-17T06:39:48.101Z,18.99
2022-08-17T06:44:57.617Z,19.12
2022-08-17T06:50:09.075Z,19.32
2022-08-17T06:55:18.562Z,19.45
2022-08-17T07:00:24.636Z,19.60
2022-08-17T07:05:33.873Z,19.66
2022-08-17T07:11:04.051Z,19.74
2022-08-17T07:16:30.474Z,19.73
2022-08-17T07:21:44.018Z,19.72
2022-08-17T07:26:46.625Z,19.77
2022-08-17T07:31:48.186Z,19.82
2022-08-17T07:37:03.398Z,19.94
2022-08-17T07:42:05.288Z,20.10
2022-08-17T07:47:35.468Z,20.18
2022-08-17T07:52:50.501Z,20.14
2022-08-17T07:57:58.688Z,20.14
2022-08-17T08:03:26.217Z,20.14
2022-08-17T08:08:37.677Z,20.16
2022-08-17T08:13:43.624Z,20.06
2022-08-17T08:18:55.429Z,20.01
2022-08-17T08:24:24.584Z,19.89
2022-08-17T08:29:56.411Z,19.83
2022-08-17T08:35:04.325Z,19.72
2022-08-17T08:40:27.645Z,19.53
2022-08-17T08:46:03.392Z,19.26
2022-08-17T08:51:42.818Z,18.55
2022-08-17T08:57:22.296Z,18.38
2022-08-17T09:02:34.567Z,18.39
2022-08-17T09:07:39.290Z,18.42
2022-08-17T09:12:53.122Z,18.49
2022-08-17T09:18:59.018Z,18.63
2022-08-17T09:23:32.434Z,18.77
2022-08-17T09:28:36.493Z,18.88
2022-08-17T09:33:44.364Z,19.01
2022-08-17T09:38:58.255Z,19.09
2022-08-17T09:44:23.027Z,19.17
2022-08-17T09:49:34.265Z,19.23
2022-08-17T09:54:40.664Z,19.29
2022-08-17T10:00:16.706Z,19.08
2022-08-17T10:05:57.469Z,19.23
2022-08-17T10:11:11.556Z,19.28
2022-08-17T10:16:32.438Z,19.27
2022-08-17T10:22:01.041Z,19.27
2022-08-17T10:27:20.136Z,19.30
2022-08-17T10:32:32.308Z,19.39
2022-08-17T10:37:36.373Z,19.54
2022-08-17T10:42:59.592Z,19.56
2022-08-17T10:48:26.780Z,19.55
2022-08-17T10:53:31.310Z,19.53
2022-08-17T10:58:56.253Z,19.50
2022-08-17T11:04:03.471Z,19.45
2022-08-17T11:09:11.809Z,19.49
2022-08-17T11:14:28.024Z,19.51
2022-08-17T11:19:48.179Z,19.51
2022-08-17T11:24:52.933Z,19.48
2022-08-17T11:30:34.780Z,19.56
2022-08-17T11:35:51.553Z,19.68
2022-08-17T11:41:34.475Z,19.89
2022-08-17T11:46:54.673Z,20.11
2022-08-17T11:51:59.515Z,20.17
2022-08-17T11:57:30.146Z,20.25
2022-08-17T12:02:35.696Z,20.42
2022-08-17T12:07:42.992Z,20.59
2022-08-17T12:12:45.770Z,20.78
2022-08-17T12:17:54.752Z,21.03
2022-08-17T12:23:06.753Z,21.26
2022-08-17T12:28:25.872Z,21.20
2022-08-17T12:33:28.860Z,21.17
2022-08-17T12:38:34.592Z,21.11
2022-08-17T12:43:36.448Z,20.97
2022-08-17T12:48:37.986Z,20.79
2022-08-17T12:53:40.809Z,20.62
2022-08-17T12:58:53.331Z,20.46
2022-08-17T13:03:59.587Z,20.15
2022-08-17T13:09:19.429Z,19.58
2022-08-17T13:14:21.465Z,19.27
2022-08-17T13:19:29.885Z,19.27
2022-08-17T13:24:55.085Z,19.21
2022-08-17T13:30:00.370Z,19.12
2022-08-17T13:35:29.459Z,19.01
2022-08-17T13:40:45.224Z,19.09
2022-08-17T13:45:50.847Z,19.17
2022-08-17T13:50:55.289Z,19.28
2022-08-17T13:56:37.502Z,19.41
2022-08-17T14:01:35.435Z,19.55
2022-08-17T14:06:52.817Z,19.61
2022-08-17T14:11:57.587Z,19.59
2022-08-17T14:16:59.266Z,19.80
2022-08-17T14:22:01.135Z,19.92
2022-08-17T14:27:05.374Z,20.05
2022-08-17T14:32:17.072Z,20.07
2022-08-17T14:37:20.117Z,20.11
2022-08-17T14:42:24.667Z,19.99
2022-08-17T14:47:26.598Z,19.91
2022-08-17T14:52:29.298Z,19.88
2022-08-17T14:57:34.276Z,19.86
2022-08-17T15:02:48.661Z,19.93
2022-08-17T15:07:50.510Z,20.06
2022-08-17T15:12:52.185Z,20.16
2022-08-17T15:17:54.523Z,20.21
2022-08-17T15:22:58.699Z,20.35
2022-08-17T15:28:01.396Z,20.41
2022-08-17T15:33:03.244Z,20.56
2022-08-17T15:38:11.546Z,20.73
2022-08-17T15:43:27.310Z,20.84
2022-08-17T15:48:43.591Z,20.80
2022-08-17T15:53:47.884Z,20.77
2022-08-17T15:58:49.963Z,20.78
2022-08-17T16:04:06.685Z,20.65
2022-08-17T16:09:15.097Z,20.63
2022-08-17T16:14:16.880Z,20.54
2022-08-17T16:19:18.680Z,20.48
2022-08-17T16:24:20.182Z,20.44
2022-08-17T16:29:22.063Z,20.32
2022-08-17T16:34:23.824Z,20.27
2022-08-17T16:39:29.015Z,20.17
2022-08-17T16:44:32.123Z,20.15
2022-08-17T16:49:36.832Z,20.08
2022-08-17T16:54:43.445Z,20.02
2022-08-17T16:59:48.083Z,19.98
2022-08-17T17:04:57.906Z,20.00
2022-08-17T17:10:06.826Z,20.01
2022-08-17T17:15:10.388Z,19.93
2022-08-17T17:20:17.356Z,19.91
2022-08-17T17:25:21.764Z,19.87
2022-08-17T17:30:52.939Z,19.89
2022-08-17T17:35:59.204Z,19.86
2022-08-17T17:41:05.822Z,19.90
2022-08-17T17:46:27.126Z,19.88
2022-08-17T17:52:08.764Z,19.89
2022-08-17T17:57:18.871Z,19.91
2022-08-17T18:03:15.125Z,19.93
2022-08-17T18:08:33.953Z,19.90
2022-08-17T18:14:15.951Z,19.88
2022-08-17T18:19:24.912Z,19.88
2022-08-17T18:24:32.238Z,19.88
2022-08-17T18:29:39.847Z,19.87
2022-08-17T18:34:48.313Z,19.89
2022-08-17T18:39:50.361Z,19.86
2022-08-17T18:44:55.367Z,19.88
2022-08-17T18:50:17.932Z,19.86
2022-08-17T18:55:27.711Z,19.79
2022-08-17T19:00:35.770Z,19.77
2022-08-17T19:05:44.601Z,19.73
2022-08-17T19:10:49.949Z,19.76
2022-08-17T19:16:12.160Z,19.79
2022-08-17T19:21:25.497Z,19.78
2022-08-17T19:26:53.797Z,19.78
2022-08-17T19:31:58.359Z,19.76
2022-08-17T19:37:10.953Z,19.77
2022-08-17T19:42:25.183Z,19.78
2022-08-17T19:47:54.774Z,19.79
2022-08-17T19:53:07.268Z,19.75
2022-08-17T19:58:08.772Z,19.77
2022-08-17T20:03:22.112Z,19.72
2022-08-17T20:08:32.583Z,19.58
2022-08-17T20:13:42.828Z,19.69
2022-08-17T20:19:11.235Z,19.77
2022-08-17T20:24:37.211Z,19.65
2022-08-17T20:30:06.806Z,19.87
2022-08-17T20:35:44.549Z,19.80
2022-08-17T20:40:55.055Z,19.86
2022-08-17T20:46:19.936Z,19.86
2022-08-17T20:51:25.892Z,19.85
2022-08-17T20:56:43.350Z,19.85
2022-08-17T21:02:18.314Z,19.73
2022-08-17T21:07:42.932Z,19.80
2022-08-17T21:12:57.986Z,19.71
2022-08-17T21:18:11.933Z,19.82
2022-08-17T21:23:22.323Z,19.64
2022-08-17T21:29:00.313Z,19.75
2022-08-17T21:34:15.045Z,19.68
2022-08-17T21:39:24.247Z,19.59
2022-08-17T21:44:50.701Z,19.50
2022-08-17T21:49:54.463Z,19.54
2022-08-17T21:55:02.436Z,19.37
2022-08-17T22:00:15.641Z,19.42
2022-08-17T22:05:31.491Z,19.24
2022-08-17T22:10:34.493Z,19.29
2022-08-17T22:15:39.999Z,19.09
2022-08-17T22:20:41.592Z,19.12
2022-08-17T22:26:05.769Z,19.03
2022-08-17T22:31:22.969Z,19.07
2022-08-17T22:36:34.476Z,19.16
2022-08-17T22:41:35.986Z,19.25
2022-08-17T22:46:41.488Z,19.11
2022-08-17T22:51:43.106Z,19.10
2022-08-17T22:57:14.822Z,19.15
2022-08-17T23:02:24.907Z,19.02
2022-08-17T23:07:26.467Z,19.18
2022-08-17T23:12:28.065Z,18.94
2022-08-17T23:17:37.225Z,18.90
2022-08-17T23:22:52.287Z,18.88
2022-08-17T23:27:57.568Z,18.92
2022-08-17T23:33:04.173Z,18.84
2022-08-17T23:38:05.785Z,18.88
2022-08-17T23:43:23.327Z,18.86
2022-08-17T23:48:36.314Z,18.79
2022-08-17T23:53:44.708Z,18.87
2022-08-17T23:58:46.372Z,18.73
